Time;durP1;ratioP1;P1;durP2;ratioP2;P2;SDS_P1;SDS_P2;PMS_P1;PMS_P2;Temp;Humidity;BMP_temperature;BMP_pressure;BME280_temperature;BME280_humidity;BME280_pressure;Samples;Min_cycle;Max_cycle;Signal;HPM_P1;HPM_P2
2023/04/27 00:01:40;;;;;;;2.77;2.57;;;;;;;2.85;100.00;96456.78;7397892;19;20388;-74
2023/04/27 00:04:07;;;;;;;2.93;2.73;;;;;;;3.13;100.00;96449.25;7396024;19;20396;-75
2023/04/27 00:06:35;;;;;;;4.23;3.23;;;;;;;3.04;100.00;96427.38;7396560;19;20440;-75
2023/04/27 00:09:03;;;;;;;7.47;3.50;;;;;;;3.03;100.00;96447.50;7399783;19;20385;-76
2023/04/27 00:11:30;;;;;;;8.13;3.67;;;;;;;2.93;100.00;96443.13;7417486;19;20476;-75
2023/04/27 00:13:57;;;;;;;4.40;3.60;;;;;;;2.80;100.00;96425.47;7429404;19;20353;-75
2023/04/27 00:16:24;;;;;;;3.80;3.47;;;;;;;2.67;100.00;96421.69;7403725;19;20968;-75
2023/04/27 00:18:52;;;;;;;10.10;3.30;;;;;;;2.91;100.00;96434.00;7396680;19;20478;-75
2023/04/27 00:21:19;;;;;;;2.97;2.63;;;;;;;2.91;100.00;96442.63;7397070;19;20424;-75
2023/04/27 00:23:46;;;;;;;5.03;3.10;;;;;;;2.94;100.00;96429.03;7395364;19;20439;-75
2023/04/27 00:26:12;;;;;;;4.87;3.63;;;;;;;3.09;100.00;96440.41;7393814;19;20440;-75
2023/04/27 00:28:42;;;;;;;4.00;3.70;;;;;;;3.15;100.00;96436.69;7395903;19;20400;-75
2023/04/27 06:39:35;;;;;;;6.23;4.30;;;;;;;4.91;100.00;96554.44;7403500;19;20354;-73
2023/04/27 06:42:03;;;;;;;5.87;4.50;;;;;;;4.45;100.00;96523.66;7401935;19;20409;-73
2023/04/27 06:44:31;;;;;;;5.33;4.73;;;;;;;4.65;100.00;96548.78;7399787;19;20790;-73
2023/04/27 06:46:57;;;;;;;5.73;4.00;;;;;;;5.01;100.00;96562.94;7399197;19;20344;-73
2023/04/27 06:49:24;;;;;;;8.90;5.43;;;;;;;5.09;100.00;96537.94;7403474;19;20704;-74
2023/04/27 06:51:51;;;;;;;5.00;4.27;;;;;;;5.28;100.00;96564.13;7401380;19;20380;-72
2023/04/27 06:54:18;;;;;;;8.50;4.77;;;;;;;5.11;100.00;96541.06;7403080;19;20357;-73
2023/04/27 06:56:45;;;;;;;7.03;4.50;;;;;;;5.27;100.00;96542.38;7400334;19;20384;-73
2023/04/27 06:59:12;;;;;;;6.37;4.87;;;;;;;5.59;100.00;96567.03;7398458;19;20374;-73
2023/04/27 07:01:39;;;;;;;5.53;4.93;;;;;;;5.40;100.00;96563.69;7399844;19;20389;-72
2023/04/27 07:04:07;;;;;;;7.50;4.17;;;;;;;5.32;100.00;96567.72;7398394;19;20380;-73
2023/04/27 07:06:34;;;;;;;6.13;3.90;;;;;;;5.38;100.00;96563.97;7397691;19;21305;-73
2023/04/27 07:09:00;;;;;;;7.07;4.40;;;;;;;5.77;100.00;96566.22;7395816;19;20445;-73
2023/04/27 07:11:31;;;;;;;4.77;3.73;;;;;;;5.87;100.00;96539.78;7400600;19;20380;-73
2023/04/27 07:13:58;;;;;;;6.00;3.53;;;;;;;5.85;100.00;96564.75;7398266;19;20770;-73
2023/04/27 07:16:25;;;;;;;4.60;3.80;;;;;;;5.61;100.00;96562.28;7399329;19;21016;-73
2023/04/27 07:18:52;;;;;;;4.77;4.13;;;;;;;5.96;100.00;96571.41;7393975;19;20988;-73
2023/04/27 07:21:19;;;;;;;7.47;4.37;;;;;;;6.05;100.00;96564.44;7399418;19;20936;-73
2023/04/27 07:23:46;;;;;;;5.33;3.90;;;;;;;6.11;100.00;96565.09;7397769;19;20387;-73
2023/04/27 07:26:13;;;;;;;8.47;4.53;;;;;;;6.15;100.00;96571.34;7398440;19;20405;-73
2023/04/27 07:28:40;;;;;;;6.00;4.30;;;;;;;5.93;100.00;96570.16;7396059;19;20466;-73
2023/04/27 07:31:07;;;;;;;4.57;3.80;;;;;;;6.01;100.00;96549.53;7399645;19;20425;-73
2023/04/27 07:33:34;;;;;;;6.17;4.60;;;;;;;6.33;100.00;96553.94;7397423;19;20738;-73
2023/04/27 07:36:01;;;;;;;5.97;3.93;;;;;;;6.71;100.00;96578.13;7398452;19;20904;-73
2023/04/27 07:38:30;;;;;;;7.40;4.47;;;;;;;6.58;100.00;96542.13;7397489;19;20432;-73
2023/04/27 07:41:00;;;;;;;5.43;3.37;;;;;;;7.02;100.00;96578.22;7398550;19;20430;-73
2023/04/27 07:43:27;;;;;;;5.10;3.63;;;;;;;7.04;100.00;96582.13;7398940;19;20353;-73
2023/04/27 07:45:57;;;;;;;4.37;2.77;;;;;;;6.98;100.00;96570.16;7399444;19;20707;-73
2023/04/27 07:48:24;;;;;;;8.30;4.70;;;;;;;7.00;100.00;96583.00;7395572;19;20392;-73
2023/04/27 07:50:51;;;;;;;4.50;3.57;;;;;;;6.94;100.00;96557.91;7398307;19;20373;-73
2023/04/27 07:53:18;;;;;;;5.47;4.07;;;;;;;6.94;100.00;96584.19;7397494;19;20475;-73
2023/04/27 07:55:45;;;;;;;8.53;4.57;;;;;;;7.34;100.00;96582.50;7429586;19;20376;-73
2023/04/27 07:58:12;;;;;;;5.70;3.90;;;;;;;7.15;100.00;96556.38;7429783;19;20456;-73
2023/04/27 08:00:39;;;;;;;5.40;4.40;;;;;;;7.17;100.00;96591.03;7434647;19;20390;-72
2023/04/27 08:03:06;;;;;;;6.10;4.07;;;;;;;7.39;100.00;96590.28;7432374;19;20424;-72
2023/04/27 08:05:34;;;;;;;8.73;3.97;;;;;;;7.58;100.00;96563.78;7426336;19;20361;-73
2023/04/27 08:08:01;;;;;;;5.30;3.20;;;;;;;7.87;100.00;96565.94;7398128;19;20472;-73
2023/04/27 08:10:28;;;;;;;6.80;4.27;;;;;;;7.77;100.00;96548.59;7398664;19;20374;-73
2023/04/27 08:12:55;;;;;;;13.07;4.40;;;;;;;7.93;100.00;96556.84;7396767;19;20440;-73
2023/04/27 08:15:22;;;;;;;7.27;4.40;;;;;;;8.34;100.00;96561.84;7398537;19;20384;-73
2023/04/27 08:17:49;;;;;;;4.27;3.40;;;;;;;8.62;100.00;96582.69;7395730;19;20445;-73
2023/04/27 08:20:16;;;;;;;7.60;3.70;;;;;;;8.78;93.59;96583.81;7399528;19;20394;-73
2023/04/27 08:22:43;;;;;;;5.90;3.53;;;;;;;8.85;92.39;96597.31;7396912;19;20380;-73
2023/04/27 08:25:10;;;;;;;5.57;4.00;;;;;;;8.86;92.23;96601.50;7398444;19;20376;-73
2023/04/27 08:27:37;;;;;;;7.03;4.50;;;;;;;8.53;95.08;96572.91;7396846;19;20440;-73
2023/04/27 08:30:05;;;;;;;5.00;3.80;;;;;;;8.95;93.94;96598.88;7407664;19;20389;-73
2023/04/27 08:32:32;;;;;;;6.33;3.80;;;;;;;9.14;96.46;96586.94;7430020;19;20344;-73
2023/04/27 08:34:59;;;;;;;9.43;4.40;;;;;;;9.20;93.19;96598.13;7430444;19;20388;-73
2023/04/27 08:37:29;;;;;;;4.07;3.67;;;;;;;9.33;92.39;96589.28;7426990;19;20417;-73
2023/04/27 08:39:56;;;;;;;6.20;3.70;;;;;;;9.46;89.71;96587.56;7431010;19;20341;-73
2023/04/27 08:42:23;;;;;;;5.00;3.70;;;;;;;9.26;88.96;96573.16;7422189;19;20365;-73
2023/04/27 08:44:50;;;;;;;7.03;3.97;;;;;;;9.38;88.64;96580.44;7397603;19;20369;-73
2023/04/27 08:47:17;;;;;;;6.00;3.73;;;;;;;9.43;88.34;96601.38;7394744;19;20445;-73
2023/04/27 08:49:56;;;;;;;5.30;3.70;;;;;;;9.52;88.99;96604.81;7398401;19;20376;-73
2023/04/27 08:52:23;;;;;;;11.27;4.60;;;;;;;9.76;86.86;96596.38;7396495;19;20418;-73
2023/04/27 08:54:50;;;;;;;4.30;2.70;;;;;;;9.87;85.67;96596.81;7399375;19;20394;-73
2023/04/27 08:57:17;;;;;;;14.03;3.60;;;;;;;9.76;83.93;96567.34;7425750;19;20409;-73
2023/04/27 08:59:56;;;;;;;8.53;3.50;;;;;;;9.83;86.14;96601.94;7429816;19;20384;-73
2023/04/27 09:02:23;;;;;;;5.87;3.30;;;;;;;9.96;84.14;96603.63;7396035;19;20967;-73
2023/04/27 09:04:50;;;;;;;4.93;4.43;;;;;;;9.69;85.43;96602.13;7394736;19;20361;-73
2023/04/27 09:07:17;;;;;;;8.93;4.60;;;;;;;9.26;85.71;96546.75;7393128;19;20420;-73
2023/04/27 09:09:45;;;;;;;7.23;4.07;;;;;;;9.73;84.83;96565.31;7394005;19;20398;-73
2023/04/27 09:12:21;;;;;;;3.90;3.50;;;;;;;9.84;82.90;96608.00;7397370;19;20373;-73
2023/04/27 09:15:05;;;;;;;3.60;3.30;;;;;;;9.80;83.03;96602.59;7395082;19;20376;-73
2023/04/27 09:17:32;;;;;;;6.23;3.13;;;;;;;10.33;82.45;96594.22;7397224;19;20948;-73
2023/04/27 09:20:12;;;;;;;5.97;3.40;;;;;;;10.15;79.14;96591.91;7395178;19;20377;-73
2023/04/27 09:22:46;;;;;;;4.70;2.70;;;;;;;10.25;74.70;96595.00;7398293;19;20369;-73
2023/04/27 09:25:32;;;;;;;3.73;3.43;;;;;;;10.52;75.29;96593.03;7394882;19;20912;-73
2023/04/27 09:28:00;;;;;;;6.60;3.23;;;;;;;10.80;73.77;96604.69;7392937;19;20979;-73
2023/04/27 09:30:28;;;;;;;3.83;3.43;;;;;;;10.66;73.32;96599.66;7396112;19;20353;-74
2023/04/27 09:33:01;;;;;;;5.40;3.73;;;;;;;10.41;72.14;96587.31;7394446;19;20380;-74
2023/04/27 09:35:31;;;;;;;3.70;2.90;;;;;;;10.53;73.95;96582.13;7395909;19;20369;-73
2023/04/27 09:37:59;;;;;;;6.40;3.30;;;;;;;10.38;74.31;96573.97;7392578;19;20408;-73
2023/04/27 09:40:29;;;;;;;3.93;3.40;;;;;;;10.15;74.06;96584.78;7395370;19;20397;-73
2023/04/27 09:43:02;;;;;;;6.37;3.60;;;;;;;10.19;75.98;96580.41;7395728;19;20380;-73
2023/04/27 09:45:32;;;;;;;5.07;3.33;;;;;;;10.33;77.12;96567.00;7396897;19;20352;-73
2023/04/27 09:48:00;;;;;;;5.17;3.53;;;;;;;10.41;75.22;96570.69;7394458;19;20425;-73
2023/04/27 09:50:27;;;;;;;7.17;3.70;;;;;;;10.47;75.04;96570.22;7397450;19;20683;-73
2023/04/27 09:52:55;;;;;;;5.10;3.33;;;;;;;10.53;75.97;96553.06;7393708;19;20932;-73
2023/04/27 09:55:28;;;;;;;8.00;3.43;;;;;;;10.65;75.16;96566.38;7395328;19;20385;-73
2023/04/27 09:58:26;;;;;;;6.60;3.53;;;;;;;10.89;74.55;96565.75;7393333;19;20425;-74
2023/04/27 10:01:03;;;;;;;6.70;4.40;;;;;;;10.64;73.55;96571.97;7393448;19;20408;-73
2023/04/27 10:03:55;;;;;;;4.07;3.10;;;;;;;10.75;74.35;96565.22;7395345;19;20396;-73
2023/04/27 10:06:52;;;;;;;5.73;3.30;;;;;;;11.15;75.42;96557.63;7395023;19;20732;-74
2023/04/27 10:09:22;;;;;;;3.70;3.40;;;;;;;11.28;74.37;96531.22;7393907;19;20403;-74
2023/04/27 10:11:51;;;;;;;6.30;3.40;;;;;;;10.95;74.33;96538.03;7392430;19;20413;-74
2023/04/27 10:14:20;;;;;;;6.40;3.33;;;;;;;10.87;75.53;96536.22;7393793;19;20389;-73
2023/04/27 10:16:55;;;;;;;8.67;4.80;;;;;;;10.85;74.81;96556.94;7394210;19;20353;-73
2023/04/27 10:19:24;;;;;;;6.00;3.57;;;;;;;11.05;74.36;96549.31;7401401;19;20348;-73
2023/04/27 10:21:52;;;;;;;4.27;3.60;;;;;;;11.20;74.95;96552.13;7399669;19;20899;-74
2023/04/27 10:24:30;;;;;;;9.33;4.67;;;;;;;11.12;73.83;96557.50;7401080;19;20864;-73
2023/04/27 10:27:04;;;;;;;5.47;4.90;;;;;;;10.81;73.58;96557.88;7398640;19;20361;-73
2023/04/27 10:29:40;;;;;;;4.40;3.23;;;;;;;11.25;71.69;96540.59;7403488;19;20369;-73
2023/04/27 10:32:20;;;;;;;5.10;4.03;;;;;;;11.42;72.05;96560.84;7400660;19;20376;-73
2023/04/27 10:34:48;;;;;;;4.17;3.50;;;;;;;11.71;69.62;96531.56;7399724;19;20380;-73
2023/04/27 10:37:15;;;;;;;6.53;3.40;;;;;;;12.26;71.50;96543.59;7399660;19;20412;-73
2023/04/27 10:39:43;;;;;;;4.10;3.10;;;;;;;12.79;72.60;96556.94;7400007;19;20373;-73
2023/04/27 10:42:27;;;;;;;4.40;3.30;;;;;;;13.04;69.06;96558.44;7401191;19;20383;-73
2023/04/27 10:44:57;;;;;;;9.30;4.10;;;;;;;13.28;69.39;96533.72;7400528;19;20719;-75
2023/04/27 10:47:39;;;;;;;7.63;3.20;;;;;;;12.87;66.69;96556.81;7396680;19;20450;-74
2023/04/27 10:50:12;;;;;;;7.97;4.10;;;;;;;13.17;68.15;96541.34;7400707;19;20679;-74
2023/04/27 10:52:43;;;;;;;6.43;3.93;;;;;;;12.61;70.18;96548.44;7398805;19;20364;-74
2023/04/27 10:55:17;;;;;;;4.77;4.37;;;;;;;12.34;69.24;96541.94;7401336;19;20377;-74
2023/04/27 10:57:50;;;;;;;5.43;3.20;;;;;;;12.40;68.60;96544.03;7399037;19;20427;-74
2023/04/27 11:00:41;;;;;;;8.17;4.10;;;;;;;12.28;69.43;96519.38;7401451;19;20357;-74
2023/04/27 11:03:18;;;;;;;6.83;4.20;;;;;;;12.24;69.03;96543.16;7400589;19;20365;-73
2023/04/27 11:05:47;;;;;;;6.53;4.40;;;;;;;11.63;70.21;96511.25;7399273;19;20416;-74
2023/04/27 11:08:16;;;;;;;5.67;4.97;;;;;;;12.39;69.13;96531.88;7398095;19;20412;-74
2023/04/27 11:10:45;;;;;;;8.50;4.57;;;;;;;12.34;69.58;96521.50;7399203;19;20380;-74
2023/04/27 11:13:15;;;;;;;5.90;3.77;;;;;;;12.24;69.37;96521.94;7400411;19;20349;-74
2023/04/27 11:15:56;;;;;;;5.83;3.97;;;;;;;12.27;67.78;96528.44;7399078;19;20345;-74
2023/04/27 11:18:26;;;;;;;8.97;4.03;;;;;;;13.03;66.78;96519.72;7396058;19;20457;-75
2023/04/27 11:21:06;;;;;;;10.13;3.90;;;;;;;13.08;67.07;96497.47;7396584;19;20408;-75
2023/04/27 11:23:37;;;;;;;5.13;3.30;;;;;;;12.92;67.34;96532.69;7398154;19;20379;-74
2023/04/27 11:26:20;;;;;;;3.27;2.93;;;;;;;12.63;66.55;96517.81;7400042;19;20361;-75
2023/04/27 11:29:08;;;;;;;8.90;3.67;;;;;;;12.75;66.97;96532.94;7396973;19;20967;-75
2023/04/27 11:31:47;;;;;;;5.40;2.97;;;;;;;12.61;65.18;96537.84;7396566;19;20713;-75
2023/04/27 11:34:20;;;;;;;5.30;3.10;;;;;;;13.31;65.33;96527.72;7399865;19;20456;-75
2023/04/27 11:37:02;;;;;;;7.20;4.03;;;;;;;13.09;64.88;96530.88;7398609;19;20357;-75
2023/04/27 11:39:44;;;;;;;4.03;3.13;;;;;;;13.31;64.19;96525.06;7398799;19;20402;-75
2023/04/27 11:42:18;;;;;;;3.03;2.73;;;;;;;13.68;63.01;96528.31;7399415;19;20715;-76
2023/04/27 11:44:59;;;;;;;8.20;4.50;;;;;;;14.00;64.05;96505.19;7399012;19;20353;-75
2023/04/27 11:47:28;;;;;;;6.30;3.20;;;;;;;14.42;62.63;96533.91;7397125;19;20488;-75
2023/04/27 11:49:57;;;;;;;4.30;3.90;;;;;;;14.28;61.89;96501.66;7398350;19;20421;-76
2023/04/27 11:52:35;;;;;;;6.80;2.77;;;;;;;14.86;62.13;96523.13;7397973;19;20370;-75
2023/04/27 11:55:03;;;;;;;5.73;3.17;;;;;;;13.98;61.18;96530.56;7398540;19;20380;-75
2023/04/27 11:57:32;;;;;;;8.00;3.40;;;;;;;14.01;61.13;96521.91;7396029;19;20944;-75
2023/04/27 12:00:02;;;;;;;3.17;2.87;;;;;;;14.38;63.64;96504.56;7398110;19;20429;-75
2023/04/27 12:02:39;;;;;;;5.70;3.57;;;;;;;14.42;59.72;96536.56;7398514;19;20344;-75
2023/04/27 12:05:08;;;;;;;6.40;3.67;;;;;;;14.47;58.98;96542.44;7399110;19;20456;-75
2023/04/27 12:07:35;;;;;;;10.67;3.30;;;;;;;13.82;59.01;96496.03;7396165;19;20444;-75
2023/04/27 12:10:03;;;;;;;3.60;3.30;;;;;;;14.53;58.87;96529.63;7399998;19;20908;-75
2023/04/27 12:12:30;;;;;;;7.10;3.70;;;;;;;14.36;58.16;96522.00;7397673;19;20429;-75
2023/04/27 12:14:57;;;;;;;4.70;3.27;;;;;;;14.56;59.22;96510.31;7398571;19;20521;-75
2023/04/27 12:17:24;;;;;;;4.30;3.57;;;;;;;14.10;59.91;96496.69;7396545;19;20413;-75
2023/04/27 12:19:51;;;;;;;5.53;4.07;;;;;;;13.40;60.49;96523.03;7395740;19;20440;-74
2023/04/27 12:22:19;;;;;;;4.30;3.77;;;;;;;13.45;61.84;96493.56;7400483;19;20392;-74
2023/04/27 12:24:45;;;;;;;3.90;3.40;;;;;;;13.58;60.20;96495.06;7430533;19;20356;-74
2023/04/27 12:27:12;;;;;;;8.03;4.13;;;;;;;12.89;61.78;96498.88;7420303;19;20457;-75
2023/04/27 12:29:39;;;;;;;231.97;207.23;;;;;;;12.64;62.42;96484.09;7395503;19;20385;-75
2023/04/27 12:32:06;;;;;;;13.30;5.63;;;;;;;13.18;61.99;96520.88;7396610;19;20415;-75
2023/04/27 12:34:33;;;;;;;5.10;4.60;;;;;;;13.65;62.38;96520.28;7395625;19;20397;-73
2023/04/27 12:37:00;;;;;;;5.70;5.20;;;;;;;13.71;61.59;96524.97;7397940;19;20716;-72
2023/04/27 12:39:28;;;;;;;3.73;3.30;;;;;;;14.00;61.25;96494.56;7397832;19;20389;-72
2023/04/27 12:41:55;;;;;;;5.90;3.20;;;;;;;13.80;61.36;96501.69;7398031;19;20384;-72
2023/04/27 12:44:22;;;;;;;6.23;4.30;;;;;;;12.72;61.57;96485.88;7394896;19;20378;-72
2023/04/27 12:46:49;;;;;;;7.00;4.70;;;;;;;12.56;62.26;96503.59;7395814;19;20365;-72
2023/04/27 12:49:16;;;;;;;5.23;3.40;;;;;;;12.27;61.45;96500.06;7395279;19;20397;-72
2023/04/27 12:51:45;;;;;;;4.33;3.63;;;;;;;12.53;62.59;96505.00;7396731;19;20388;-72
2023/04/27 12:54:12;;;;;;;6.13;4.77;;;;;;;12.42;62.87;96488.03;7394874;19;20404;-72
2023/04/27 12:56:40;;;;;;;26.23;21.93;;;;;;;13.43;62.87;96508.31;7396794;19;20376;-74
2023/04/27 12:59:07;;;;;;;13.47;7.77;;;;;;;12.81;62.00;96488.38;7392959;19;20445;-74
2023/04/27 13:01:35;;;;;;;7.23;5.30;;;;;;;12.86;62.40;96504.06;7396824;19;20709;-74
2023/04/27 13:04:04;;;;;;;6.70;4.20;;;;;;;13.85;62.70;96508.63;7395085;19;20396;-74
2023/04/27 13:06:31;;;;;;;6.37;3.30;;;;;;;13.71;60.98;96508.28;7397498;19;20909;-73
2023/04/27 13:08:58;;;;;;;7.67;3.43;;;;;;;13.56;62.14;96481.34;7392970;19;20759;-73
2023/04/27 13:11:26;;;;;;;8.30;3.57;;;;;;;13.97;60.60;96487.28;7396569;19;20388;-73
2023/04/27 13:13:53;;;;;;;5.10;3.97;;;;;;;13.77;60.95;96489.09;7396144;19;20352;-74
2023/04/27 13:16:23;;;;;;;4.07;3.73;;;;;;;14.01;60.62;96506.72;7396506;19;20880;-74
2023/04/27 13:18:52;;;;;;;8.27;3.40;;;;;;;13.82;61.57;96504.78;7393427;19;20445;-74
2023/04/27 13:21:19;;;;;;;4.87;3.40;;;;;;;13.44;60.94;96493.91;7396562;19;20380;-73
2023/04/27 13:23:47;;;;;;;9.50;4.80;;;;;;;13.30;61.21;96504.94;7394406;19;20877;-73
2023/04/27 13:26:15;;;;;;;3.80;3.23;;;;;;;13.63;60.80;96503.91;7396206;19;20889;-73
2023/04/27 13:28:42;;;;;;;6.80;3.67;;;;;;;13.05;60.17;96484.88;7392828;19;20789;-73
2023/04/27 13:31:09;;;;;;;6.43;3.20;;;;;;;13.19;60.52;96509.19;7392897;19;20345;-73
2023/04/27 13:33:41;;;;;;;5.83;3.17;;;;;;;13.15;60.42;96500.34;7395159;19;20814;-73
2023/04/27 13:36:10;;;;;;;5.23;3.27;;;;;;;13.54;60.04;96478.25;7395217;19;20361;-73
2023/04/27 13:38:37;;;;;;;3.10;2.80;;;;;;;13.45;59.97;96461.69;7394484;19;20452;-73
2023/04/27 13:41:05;;;;;;;6.33;2.73;;;;;;;13.53;60.25;96497.19;7393252;19;20384;-73
2023/04/27 13:43:32;;;;;;;4.80;2.63;;;;;;;13.37;62.09;96488.44;7395086;19;20419;-73
2023/04/27 13:46:00;;;;;;;9.33;3.83;;;;;;;12.98;61.37;96469.53;7393045;19;20747;-73
2023/04/27 13:48:28;;;;;;;3.80;3.37;;;;;;;12.75;61.16;96477.25;7395194;19;20428;-72
2023/04/27 13:50:55;;;;;;;3.87;3.47;;;;;;;12.72;62.08;96469.97;7426717;19;20377;-72
2023/04/27 13:53:25;;;;;;;5.13;3.37;;;;;;;13.17;61.55;96467.00;7431771;19;20416;-72
2023/04/27 13:55:53;;;;;;;9.13;4.40;;;;;;;13.38;61.29;96466.06;7432289;19;20396;-72
2023/04/27 13:58:20;;;;;;;4.13;3.17;;;;;;;13.44;60.92;96486.72;7401225;19;20431;-72
2023/04/27 14:00:51;;;;;;;4.13;3.73;;;;;;;13.40;61.47;96483.22;7402406;19;20356;-72
2023/04/27 14:03:18;;;;;;;5.93;3.70;;;;;;;13.09;60.82;96467.16;7402801;19;20389;-72
2023/04/27 14:05:47;;;;;;;4.70;3.30;;;;;;;13.22;60.81;96473.97;7400605;19;20372;-72
2023/04/27 14:08:14;;;;;;;7.50;3.20;;;;;;;13.75;61.26;96450.66;7401289;19;20777;-72
2023/04/27 14:10:43;;;;;;;5.80;3.00;;;;;;;13.50;60.16;96476.63;7402062;19;20351;-72
2023/04/27 14:13:11;;;;;;;2.97;2.70;;;;;;;13.11;60.99;96459.66;7402576;19;20401;-72
2023/04/27 14:15:37;;;;;;;5.70;3.77;;;;;;;13.19;60.94;96456.84;7400857;19;20349;-72
2023/04/27 14:18:06;;;;;;;3.97;3.23;;;;;;;13.50;61.23;96472.09;7400565;19;20443;-72
2023/04/27 14:20:35;;;;;;;10.47;6.40;;;;;;;13.44;60.75;96473.44;7401902;19;20337;-72
2023/04/27 14:23:03;;;;;;;5.50;5.00;;;;;;;13.59;61.31;96464.72;7401981;19;20376;-72
2023/04/27 14:25:33;;;;;;;3.60;3.30;;;;;;;13.41;60.00;96449.44;7400453;19;20948;-72
2023/04/27 14:28:03;;;;;;;5.53;5.03;;;;;;;13.41;60.65;96468.03;7416452;19;20408;-73
2023/04/27 14:30:31;;;;;;;6.97;3.27;;;;;;;13.41;60.64;96471.47;7431441;19;20389;-73
2023/04/27 14:32:58;;;;;;;3.37;2.90;;;;;;;13.48;61.18;96463.66;7428478;19;20369;-73
2023/04/27 14:35:26;;;;;;;4.23;3.50;;;;;;;13.34;60.53;96447.38;7428889;19;20369;-73
2023/04/27 14:37:55;;;;;;;11.57;9.43;;;;;;;13.38;60.89;96466.06;7421052;19;20389;-73
2023/04/27 14:40:22;;;;;;;13.03;4.63;;;;;;;13.04;61.28;96409.78;7401400;19;20421;-72
2023/04/27 14:42:49;;;;;;;4.97;3.07;;;;;;;13.71;60.01;96473.72;7400216;19;20376;-73
2023/04/27 14:45:17;;;;;;;5.60;3.37;;;;;;;14.45;60.18;96451.56;7402636;19;20345;-72
2023/04/27 14:47:44;;;;;;;8.70;5.60;;;;;;;15.71;57.76;96468.81;7399628;19;20423;-72
2023/04/27 14:50:11;;;;;;;13.93;11.13;;;;;;;14.91;58.90;96474.91;7400732;19;20344;-72
2023/04/27 14:52:38;;;;;;;8.13;4.37;;;;;;;15.41;58.37;96475.88;7400415;19;20344;-72
2023/04/27 14:55:06;;;;;;;5.63;4.83;;;;;;;14.45;58.24;96469.41;7400237;19;20364;-72
2023/04/27 14:57:34;;;;;;;18.73;11.87;;;;;;;14.32;59.09;96473.25;7398183;19;20412;-73
2023/04/27 15:00:05;;;;;;;4.13;3.20;;;;;;;14.69;57.80;96474.50;7400612;19;20416;-73
2023/04/27 15:02:32;;;;;;;5.03;3.20;;;;;;;15.48;57.06;96468.75;7400886;19;20378;-73
2023/04/27 15:05:01;;;;;;;4.20;2.90;;;;;;;14.95;58.50;96473.09;7397834;19;20388;-73
2023/04/27 15:07:28;;;;;;;7.10;4.93;;;;;;;15.43;57.49;96471.72;7397428;19;20437;-73
2023/04/27 15:09:55;;;;;;;10.30;2.97;;;;;;;15.14;57.69;96481.09;7400184;19;20841;-73
2023/04/27 15:12:22;;;;;;;3.80;3.03;;;;;;;14.70;57.53;96469.94;7398709;19;20912;-72
2023/04/27 15:14:51;;;;;;;11.57;8.93;;;;;;;13.68;59.58;96440.63;7400585;19;20834;-72
2023/04/27 15:17:18;;;;;;;9.20;4.27;;;;;;;13.48;60.47;96455.69;7398115;19;20389;-73
2023/04/27 15:19:45;;;;;;;4.40;3.00;;;;;;;13.62;60.57;96468.56;7401145;19;20377;-73
2023/04/27 15:22:12;;;;;;;5.10;2.83;;;;;;;13.44;61.05;96472.66;7398744;19;20373;-74
2023/04/27 15:24:42;;;;;;;3.90;3.60;;;;;;;13.31;60.63;96464.75;7399632;19;20918;-74
2023/04/27 15:27:09;;;;;;;8.47;7.60;;;;;;;13.16;60.17;96462.81;7398859;19;20431;-74
2023/04/27 15:29:36;;;;;;;10.67;9.40;;;;;;;13.60;60.71;96476.09;7399028;19;20390;-75
2023/04/27 15:32:03;;;;;;;11.60;3.40;;;;;;;13.36;59.61;96460.34;7398556;19;20726;-74
2023/04/27 15:34:30;;;;;;;8.50;4.13;;;;;;;13.66;60.74;96452.72;7397234;19;20376;-74
2023/04/27 15:36:57;;;;;;;19.80;18.00;;;;;;;13.40;60.75;96461.97;7398404;19;20410;-75
2023/04/27 15:39:26;;;;;;;12.10;8.50;;;;;;;13.01;61.01;96429.03;7397548;19;20384;-74
2023/04/27 15:41:53;;;;;;;6.30;5.13;;;;;;;13.00;61.69;96441.53;7398594;19;20348;-75
2023/04/27 15:44:19;;;;;;;3.53;3.20;;;;;;;12.69;61.16;96430.84;7397113;19;20393;-75
2023/04/27 15:46:46;;;;;;;8.50;6.23;;;;;;;12.77;62.04;96450.38;7398332;19;20409;-75
2023/04/27 15:49:13;;;;;;;10.50;6.50;;;;;;;12.75;61.64;96445.41;7394522;19;20377;-75
2023/04/27 15:51:41;;;;;;;9.60;8.70;;;;;;;13.08;62.21;96442.50;7399415;19;20384;-75
2023/04/27 15:54:08;;;;;;;4.53;4.13;;;;;;;12.91;61.62;96432.19;7397907;19;20726;-75
2023/04/27 15:56:35;;;;;;;5.83;3.40;;;;;;;13.12;61.66;96450.56;7399718;19;20356;-75
2023/04/27 15:59:05;;;;;;;13.87;10.30;;;;;;;12.81;62.00;96443.25;7394578;19;21011;-75
2023/04/27 16:01:32;;;;;;;6.00;3.77;;;;;;;12.59;61.63;96439.25;7398414;19;20372;-75
2023/04/27 16:03:59;;;;;;;5.93;3.80;;;;;;;12.57;60.96;96413.06;7396827;19;21055;-75
2023/04/27 16:06:31;;;;;;;3.73;3.10;;;;;;;12.89;62.97;96435.16;7399169;19;20340;-75
2023/04/27 16:09:00;;;;;;;8.13;3.13;;;;;;;12.64;61.70;96418.56;7394879;19;20429;-73
2023/04/27 16:11:26;;;;;;;4.47;2.40;;;;;;;12.92;62.66;96433.72;7398424;19;20341;-74
2023/04/27 16:13:53;;;;;;;4.50;3.57;;;;;;;12.48;63.38;96406.34;7396083;19;20357;-72
2023/04/27 16:16:20;;;;;;;3.97;3.10;;;;;;;12.56;63.04;96421.38;7396929;19;20389;-72
2023/04/27 16:18:48;;;;;;;8.63;7.30;;;;;;;12.55;63.57;96409.97;7394893;19;20568;-73
2023/04/27 16:21:15;;;;;;;4.63;4.33;;;;;;;12.99;62.76;96424.06;7398860;19;20908;-73
2023/04/27 16:23:42;;;;;;;3.40;3.10;;;;;;;13.11;61.82;96391.41;7396291;19;20372;-73
2023/04/27 16:26:09;;;;;;;7.27;3.90;;;;;;;13.38;62.01;96416.38;7397483;19;20756;-74
2023/04/27 16:28:37;;;;;;;7.70;3.83;;;;;;;13.45;61.50;96415.78;7394775;19;20443;-73
2023/04/27 16:31:04;;;;;;;4.60;3.93;;;;;;;13.45;62.51;96395.28;7397605;19;20392;-73
2023/04/27 16:33:31;;;;;;;8.50;7.70;;;;;;;13.33;61.15;96403.34;7395868;19;20412;-73
2023/04/27 16:35:58;;;;;;;7.00;4.23;;;;;;;13.35;61.56;96417.03;7398950;19;20484;-73
2023/04/27 16:38:25;;;;;;;10.70;3.43;;;;;;;13.41;62.05;96414.94;7394489;19;20461;-73
2023/04/27 16:40:54;;;;;;;10.13;3.93;;;;;;;13.55;61.48;96404.66;7397235;19;20389;-73
2023/04/27 16:43:21;;;;;;;6.33;3.53;;;;;;;13.07;62.77;96409.09;7396108;19;20389;-73
2023/04/27 16:45:48;;;;;;;5.23;4.30;;;;;;;13.32;62.04;96423.81;7398065;19;20739;-74
2023/04/27 16:48:16;;;;;;;7.60;3.67;;;;;;;13.44;62.34;96404.38;7391565;19;20430;-73
2023/04/27 16:50:43;;;;;;;3.40;3.00;;;;;;;13.44;61.17;96403.59;7399217;19;20440;-73
2023/04/27 16:53:13;;;;;;;7.23;3.40;;;;;;;13.45;62.17;96421.09;7396183;19;20924;-73
2023/04/27 16:55:40;;;;;;;9.80;3.03;;;;;;;13.26;62.28;96406.59;7394496;19;20404;-73
2023/04/27 16:58:07;;;;;;;3.53;3.23;;;;;;;12.83;62.07;96396.72;7394791;19;20401;-73
2023/04/27 17:00:35;;;;;;;4.50;3.10;;;;;;;12.99;63.26;96424.06;7394109;19;20396;-73
2023/04/27 17:03:02;;;;;;;6.30;4.20;;;;;;;12.82;63.22;96415.63;7395918;19;20380;-73
2023/04/27 17:05:29;;;;;;;5.13;3.17;;;;;;;12.73;63.24;96392.69;7394581;19;20480;-73
2023/04/27 17:07:56;;;;;;;4.57;3.50;;;;;;;12.66;63.41;96389.03;7396467;19;20429;-73
2023/04/27 17:10:23;;;;;;;7.87;3.47;;;;;;;12.78;64.62;96389.00;7393835;19;20790;-73
2023/04/27 17:12:50;;;;;;;5.77;3.90;;;;;;;13.10;63.39;96413.75;7395817;19;20381;-73
2023/04/27 17:15:17;;;;;;;7.30;3.80;;;;;;;12.95;63.39;96407.28;7392300;19;20349;-73
2023/04/27 17:17:44;;;;;;;5.13;4.17;;;;;;;13.07;64.35;96421.59;7395362;19;20455;-73
2023/04/27 17:20:12;;;;;;;6.83;4.43;;;;;;;12.85;63.53;96399.81;7394402;19;20403;-73
2023/04/27 17:22:39;;;;;;;6.63;4.90;;;;;;;12.87;62.71;96399.47;7395638;19;20357;-76
2023/04/27 17:25:07;;;;;;;5.07;4.70;;;;;;;12.80;63.83;96384.13;7394468;19;20405;-75
2023/04/27 17:27:34;;;;;;;5.07;4.63;;;;;;;12.59;64.05;96379.03;7395156;19;20445;-75
2023/04/27 17:30:01;;;;;;;4.43;4.00;;;;;;;12.67;64.39;96409.94;7400573;19;20357;-75
2023/04/27 17:32:28;;;;;;;4.60;4.13;;;;;;;12.53;64.46;96367.09;7400609;19;20412;-75
2023/04/27 17:34:56;;;;;;;7.50;4.73;;;;;;;12.63;65.34;96400.34;7403040;19;20440;-75
2023/04/27 17:37:23;;;;;;;12.83;5.27;;;;;;;12.57;65.74;96404.34;7402697;19;20559;-75
2023/04/27 17:39:51;;;;;;;8.77;4.33;;;;;;;12.54;66.93;96416.38;7404640;19;20381;-75
2023/04/27 17:42:18;;;;;;;6.70;3.97;;;;;;;12.19;68.43;96386.22;7403786;19;20377;-75
2023/04/27 17:44:45;;;;;;;5.70;3.10;;;;;;;12.19;69.37;96405.53;7401517;19;20432;-75
2023/04/27 17:47:12;;;;;;;5.10;4.47;;;;;;;11.97;69.21;96388.22;7402943;19;20420;-75
2023/04/27 17:49:39;;;;;;;4.37;3.07;;;;;;;12.11;69.93;96412.50;7399323;19;20385;-75
2023/04/27 17:52:06;;;;;;;6.40;3.60;;;;;;;11.91;69.20;96399.38;7403117;19;20361;-75